sensor_id;sensor_type;location;lat;lon;timestamp;P1;durP1;ratioP1;P2;durP2;ratioP2
11988;SDS011;6054;50.966;7.094;2023-08-07T00:00:09;8.05;;;2.72;;
11988;SDS011;6054;50.966;7.094;2023-08-07T00:02:37;8.43;;;2.35;;
11988;SDS011;6054;50.966;7.094;2023-08-07T00:05:04;11.18;;;2.78;;
11988;SDS011;6054;50.966;7.094;2023-08-07T00:07:31;7.68;;;2.90;;
11988;SDS011;6054;50.966;7.094;2023-08-07T00:09:58;7.97;;;2.70;;
11988;SDS011;6054;50.966;7.094;2023-08-07T00:12:26;12.68;;;2.75;;
11988;SDS011;6054;50.966;7.094;2023-08-07T00:14:53;13.70;;;2.60;;
11988;SDS011;6054;50.966;7.094;2023-08-07T00:17:21;18.38;;;2.88;;
11988;SDS011;6054;50.966;7.094;2023-08-07T00:19:48;9.07;;;2.40;;
11988;SDS011;6054;50.966;7.094;2023-08-07T00:22:14;5.78;;;2.03;;
11988;SDS011;6054;50.966;7.094;2023-08-07T00:24:41;16.33;;;2.60;;
11988;SDS011;6054;50.966;7.094;2023-08-07T00:27:08;9.93;;;2.83;;
11988;SDS011;6054;50.966;7.094;2023-08-07T00:29:35;8.52;;;2.60;;
11988;SDS011;6054;50.966;7.094;2023-08-07T00:32:02;9.50;;;2.47;;
11988;SDS011;6054;50.966;7.094;2023-08-07T00:34:30;11.32;;;2.20;;
11988;SDS011;6054;50.966;7.094;2023-08-07T00:36:57;9.48;;;2.60;;
11988;SDS011;6054;50.966;7.094;2023-08-07T00:39:24;13.38;;;2.78;;
11988;SDS011;6054;50.966;7.094;2023-08-07T00:41:51;13.20;;;2.92;;
11988;SDS011;6054;50.966;7.094;2023-08-07T00:44:17;9.98;;;2.80;;
11988;SDS011;6054;50.966;7.094;2023-08-07T00:46:44;7.95;;;2.67;;
11988;SDS011;6054;50.966;7.094;2023-08-07T00:49:12;10.30;;;2.55;;
11988;SDS011;6054;50.966;7.094;2023-08-07T00:51:40;7.00;;;2.42;;
11988;SDS011;6054;50.966;7.094;2023-08-07T00:54:07;12.95;;;2.75;;
11988;SDS011;6054;50.966;7.094;2023-08-07T00:56:37;11.27;;;2.50;;
11988;SDS011;6054;50.966;7.094;2023-08-07T00:59:05;9.25;;;2.90;;
11988;SDS011;6054;50.966;7.094;2023-08-07T01:01:33;7.75;;;2.70;;
11988;SDS011;6054;50.966;7.094;2023-08-07T01:03:59;9.30;;;2.92;;
11988;SDS011;6054;50.966;7.094;2023-08-07T01:06:26;8.77;;;3.10;;
11988;SDS011;6054;50.966;7.094;2023-08-07T01:08:54;8.40;;;2.60;;
11988;SDS011;6054;50.966;7.094;2023-08-07T01:11:24;7.13;;;3.42;;
11988;SDS011;6054;50.966;7.094;2023-08-07T01:13:58;8.15;;;2.45;;
11988;SDS011;6054;50.966;7.094;2023-08-07T01:16:34;8.80;;;2.40;;
11988;SDS011;6054;50.966;7.094;2023-08-07T01:19:05;8.15;;;2.50;;
11988;SDS011;6054;50.966;7.094;2023-08-07T01:21:45;9.07;;;2.47;;
11988;SDS011;6054;50.966;7.094;2023-08-07T01:24:14;6.18;;;2.47;;
11988;SDS011;6054;50.966;7.094;2023-08-07T01:26:41;8.20;;;3.00;;
11988;SDS011;6054;50.966;7.094;2023-08-07T01:29:12;11.88;;;2.67;;
11988;SDS011;6054;50.966;7.094;2023-08-07T01:31:45;4.82;;;2.67;;
11988;SDS011;6054;50.966;7.094;2023-08-07T01:34:15;8.95;;;2.50;;
11988;SDS011;6054;50.966;7.094;2023-08-07T01:36:47;11.27;;;3.00;;
11988;SDS011;6054;50.966;7.094;2023-08-07T01:39:15;11.10;;;2.83;;
11988;SDS011;6054;50.966;7.094;2023-08-07T01:41:44;12.70;;;2.78;;
11988;SDS011;6054;50.966;7.094;2023-08-07T01:44:12;8.35;;;2.65;;
11988;SDS011;6054;50.966;7.094;2023-08-07T01:46:39;11.48;;;2.60;;
11988;SDS011;6054;50.966;7.094;2023-08-07T01:49:05;10.65;;;2.50;;
11988;SDS011;6054;50.966;7.094;2023-08-07T01:51:32;13.18;;;2.78;;
11988;SDS011;6054;50.966;7.094;2023-08-07T01:54:00;15.20;;;3.85;;
11988;SDS011;6054;50.966;7.094;2023-08-07T01:56:27;15.10;;;2.97;;
11988;SDS011;6054;50.966;7.094;2023-08-07T01:58:54;15.50;;;3.30;;
11988;SDS011;6054;50.966;7.094;2023-08-07T02:01:21;12.98;;;3.60;;
11988;SDS011;6054;50.966;7.094;2023-08-07T02:03:48;12.23;;;3.53;;
11988;SDS011;6054;50.966;7.094;2023-08-07T02:06:14;15.45;;;3.25;;
11988;SDS011;6054;50.966;7.094;2023-08-07T02:08:41;17.42;;;3.28;;
11988;SDS011;6054;50.966;7.094;2023-08-07T02:11:09;15.48;;;3.47;;
11988;SDS011;6054;50.966;7.094;2023-08-07T02:13:36;13.60;;;3.83;;
11988;SDS011;6054;50.966;7.094;2023-08-07T02:16:03;12.77;;;3.50;;
11988;SDS011;6054;50.966;7.094;2023-08-07T02:18:30;12.55;;;3.05;;
11988;SDS011;6054;50.966;7.094;2023-08-07T02:20:57;12.68;;;3.88;;
11988;SDS011;6054;50.966;7.094;2023-08-07T02:23:23;11.57;;;3.42;;
11988;SDS011;6054;50.966;7.094;2023-08-07T02:25:51;14.55;;;3.67;;
11988;SDS011;6054;50.966;7.094;2023-08-07T02:28:19;13.27;;;3.63;;
11988;SDS011;6054;50.966;7.094;2023-08-07T02:30:46;18.23;;;3.55;;
11988;SDS011;6054;50.966;7.094;2023-08-07T02:33:13;12.82;;;3.80;;
11988;SDS011;6054;50.966;7.094;2023-08-07T02:35:40;12.43;;;3.42;;
11988;SDS011;6054;50.966;7.094;2023-08-07T02:38:07;14.82;;;3.17;;
11988;SDS011;6054;50.966;7.094;2023-08-07T02:40:33;11.43;;;3.40;;
11988;SDS011;6054;50.966;7.094;2023-08-07T02:43:00;17.55;;;3.60;;
11988;SDS011;6054;50.966;7.094;2023-08-07T02:45:28;14.48;;;3.42;;
11988;SDS011;6054;50.966;7.094;2023-08-07T02:47:55;12.60;;;3.65;;
11988;SDS011;6054;50.966;7.094;2023-08-07T02:50:22;9.88;;;3.40;;
11988;SDS011;6054;50.966;7.094;2023-08-07T02:52:49;16.38;;;3.25;;
11988;SDS011;6054;50.966;7.094;2023-08-07T02:55:16;9.02;;;2.95;;
11988;SDS011;6054;50.966;7.094;2023-08-07T02:57:43;6.38;;;2.70;;
11988;SDS011;6054;50.966;7.094;2023-08-07T03:00:10;11.88;;;3.05;;
11988;SDS011;6054;50.966;7.094;2023-08-07T03:02:38;6.55;;;2.53;;
11988;SDS011;6054;50.966;7.094;2023-08-07T03:05:05;7.97;;;2.50;;
11988;SDS011;6054;50.966;7.094;2023-08-07T03:07:32;8.95;;;2.38;;
11988;SDS011;6054;50.966;7.094;2023-08-07T03:09:59;10.68;;;2.78;;
11988;SDS011;6054;50.966;7.094;2023-08-07T03:12:26;6.75;;;2.55;;
11988;SDS011;6054;50.966;7.094;2023-08-07T03:14:53;13.73;;;3.13;;
11988;SDS011;6054;50.966;7.094;2023-08-07T03:17:19;12.88;;;3.13;;
11988;SDS011;6054;50.966;7.094;2023-08-07T03:19:47;9.88;;;3.15;;
11988;SDS011;6054;50.966;7.094;2023-08-07T03:22:14;12.57;;;3.13;;
11988;SDS011;6054;50.966;7.094;2023-08-07T03:24:41;12.43;;;3.45;;
11988;SDS011;6054;50.966;7.094;2023-08-07T03:27:12;14.07;;;3.78;;
11988;SDS011;6054;50.966;7.094;2023-08-07T03:29:39;8.75;;;3.50;;
11988;SDS011;6054;50.966;7.094;2023-08-07T03:32:06;6.32;;;2.97;;
11988;SDS011;6054;50.966;7.094;2023-08-07T03:34:34;15.77;;;3.97;;
11988;SDS011;6054;50.966;7.094;2023-08-07T03:37:02;12.98;;;3.40;;
11988;SDS011;6054;50.966;7.094;2023-08-07T03:39:29;11.80;;;3.75;;
11988;SDS011;6054;50.966;7.094;2023-08-07T03:41:56;12.18;;;3.50;;
11988;SDS011;6054;50.966;7.094;2023-08-07T03:44:23;10.77;;;3.10;;
11988;SDS011;6054;50.966;7.094;2023-08-07T03:46:50;16.58;;;3.50;;
11988;SDS011;6054;50.966;7.094;2023-08-07T03:49:17;6.05;;;3.17;;
11988;SDS011;6054;50.966;7.094;2023-08-07T03:51:43;13.10;;;3.33;;
11988;SDS011;6054;50.966;7.094;2023-08-07T03:54:12;6.18;;;3.35;;
11988;SDS011;6054;50.966;7.094;2023-08-07T03:56:38;12.25;;;3.58;;
11988;SDS011;6054;50.966;7.094;2023-08-07T03:59:05;16.98;;;3.42;;
11988;SDS011;6054;50.966;7.094;2023-08-07T04:01:32;13.23;;;3.50;;
11988;SDS011;6054;50.966;7.094;2023-08-07T04:03:59;16.45;;;3.58;;
11988;SDS011;6054;50.966;7.094;2023-08-07T04:06:26;13.95;;;3.35;;
11988;SDS011;6054;50.966;7.094;2023-08-07T04:08:53;15.77;;;3.55;;
11988;SDS011;6054;50.966;7.094;2023-08-07T04:11:21;8.48;;;2.80;;
11988;SDS011;6054;50.966;7.094;2023-08-07T04:13:48;10.82;;;3.40;;
11988;SDS011;6054;50.966;7.094;2023-08-07T04:16:15;9.80;;;3.17;;
11988;SDS011;6054;50.966;7.094;2023-08-07T04:18:42;10.10;;;3.05;;
11988;SDS011;6054;50.966;7.094;2023-08-07T04:21:09;10.82;;;3.05;;
11988;SDS011;6054;50.966;7.094;2023-08-07T04:23:36;8.88;;;2.88;;
11988;SDS011;6054;50.966;7.094;2023-08-07T04:26:02;12.52;;;3.13;;
11988;SDS011;6054;50.966;7.094;2023-08-07T04:28:31;12.73;;;2.78;;
11988;SDS011;6054;50.966;7.094;2023-08-07T04:30:57;10.38;;;2.67;;
11988;SDS011;6054;50.966;7.094;2023-08-07T04:33:24;7.80;;;3.22;;
11988;SDS011;6054;50.966;7.094;2023-08-07T04:35:51;11.02;;;3.13;;
11988;SDS011;6054;50.966;7.094;2023-08-07T04:38:18;6.88;;;2.63;;
11988;SDS011;6054;50.966;7.094;2023-08-07T04:40:45;10.95;;;3.20;;
11988;SDS011;6054;50.966;7.094;2023-08-07T04:43:12;11.40;;;3.75;;
11988;SDS011;6054;50.966;7.094;2023-08-07T04:45:40;7.28;;;3.00;;
11988;SDS011;6054;50.966;7.094;2023-08-07T04:48:09;14.05;;;3.63;;
11988;SDS011;6054;50.966;7.094;2023-08-07T04:50:37;11.52;;;3.47;;
11988;SDS011;6054;50.966;7.094;2023-08-07T04:53:04;13.35;;;4.35;;
11988;SDS011;6054;50.966;7.094;2023-08-07T04:55:31;8.45;;;3.60;;
11988;SDS011;6054;50.966;7.094;2023-08-07T04:57:58;6.78;;;3.60;;
11988;SDS011;6054;50.966;7.094;2023-08-07T05:00:27;9.30;;;3.20;;
11988;SDS011;6054;50.966;7.094;2023-08-07T05:02:55;13.15;;;3.85;;
11988;SDS011;6054;50.966;7.094;2023-08-07T05:05:22;9.27;;;3.40;;
11988;SDS011;6054;50.966;7.094;2023-08-07T05:07:49;10.73;;;3.60;;
11988;SDS011;6054;50.966;7.094;2023-08-07T05:10:16;11.50;;;3.80;;
11988;SDS011;6054;50.966;7.094;2023-08-07T05:12:43;11.85;;;3.63;;
11988;SDS011;6054;50.966;7.094;2023-08-07T05:15:09;14.05;;;3.60;;
11988;SDS011;6054;50.966;7.094;2023-08-07T05:17:36;12.48;;;3.42;;
11988;SDS011;6054;50.966;7.094;2023-08-07T05:20:05;9.88;;;3.28;;
11988;SDS011;6054;50.966;7.094;2023-08-07T05:22:33;11.63;;;3.35;;
11988;SDS011;6054;50.966;7.094;2023-08-07T05:25:00;8.55;;;3.05;;
11988;SDS011;6054;50.966;7.094;2023-08-07T05:27:27;9.82;;;3.55;;
11988;SDS011;6054;50.966;7.094;2023-08-07T05:29:54;12.77;;;3.70;;
11988;SDS011;6054;50.966;7.094;2023-08-07T05:32:21;13.27;;;3.35;;
11988;SDS011;6054;50.966;7.094;2023-08-07T05:34:48;11.63;;;3.28;;
11988;SDS011;6054;50.966;7.094;2023-08-07T05:37:16;9.38;;;3.17;;
11988;SDS011;6054;50.966;7.094;2023-08-07T05:39:43;11.85;;;4.00;;
11988;SDS011;6054;50.966;7.094;2023-08-07T05:42:10;12.65;;;3.50;;
11988;SDS011;6054;50.966;7.094;2023-08-07T05:44:37;9.48;;;3.90;;
11988;SDS011;6054;50.966;7.094;2023-08-07T05:47:04;12.95;;;3.08;;
11988;SDS011;6054;50.966;7.094;2023-08-07T05:49:32;9.30;;;2.97;;
11988;SDS011;6054;50.966;7.094;2023-08-07T05:51:59;9.88;;;3.08;;
11988;SDS011;6054;50.966;7.094;2023-08-07T05:54:27;7.15;;;2.83;;
11988;SDS011;6054;50.966;7.094;2023-08-07T05:56:54;11.20;;;2.65;;
11988;SDS011;6054;50.966;7.094;2023-08-07T05:59:20;11.40;;;2.80;;
11988;SDS011;6054;50.966;7.094;2023-08-07T06:01:47;8.35;;;2.67;;
11988;SDS011;6054;50.966;7.094;2023-08-07T06:04:14;14.48;;;2.90;;
11988;SDS011;6054;50.966;7.094;2023-08-07T06:06:41;13.00;;;3.28;;
11988;SDS011;6054;50.966;7.094;2023-08-07T06:09:08;11.07;;;2.75;;
11988;SDS011;6054;50.966;7.094;2023-08-07T06:11:36;10.10;;;3.20;;
11988;SDS011;6054;50.966;7.094;2023-08-07T06:14:03;10.18;;;2.95;;
11988;SDS011;6054;50.966;7.094;2023-08-07T06:16:30;14.52;;;3.65;;
11988;SDS011;6054;50.966;7.094;2023-08-07T06:18:57;7.75;;;2.70;;
11988;SDS011;6054;50.966;7.094;2023-08-07T06:21:23;9.38;;;2.85;;
11988;SDS011;6054;50.966;7.094;2023-08-07T06:23:51;9.82;;;3.50;;
11988;SDS011;6054;50.966;7.094;2023-08-07T06:26:17;10.27;;;2.88;;
11988;SDS011;6054;50.966;7.094;2023-08-07T06:28:45;12.80;;;2.97;;
11988;SDS011;6054;50.966;7.094;2023-08-07T06:31:12;11.55;;;2.97;;
11988;SDS011;6054;50.966;7.094;2023-08-07T06:33:39;10.48;;;3.03;;
11988;SDS011;6054;50.966;7.094;2023-08-07T06:36:06;13.80;;;3.00;;
11988;SDS011;6054;50.966;7.094;2023-08-07T06:38:33;12.65;;;3.25;;
11988;SDS011;6054;50.966;7.094;2023-08-07T06:41:00;11.30;;;3.00;;
11988;SDS011;6054;50.966;7.094;2023-08-07T06:43:27;10.13;;;2.53;;
11988;SDS011;6054;50.966;7.094;2023-08-07T06:45:56;8.32;;;3.28;;
11988;SDS011;6054;50.966;7.094;2023-08-07T06:48:23;14.60;;;2.85;;
11988;SDS011;6054;50.966;7.094;2023-08-07T06:50:50;9.20;;;2.83;;
11988;SDS011;6054;50.966;7.094;2023-08-07T06:53:17;12.02;;;2.80;;
11988;SDS011;6054;50.966;7.094;2023-08-07T06:55:44;7.82;;;2.80;;
11988;SDS011;6054;50.966;7.094;2023-08-07T06:58:11;8.48;;;2.65;;
11988;SDS011;6054;50.966;7.094;2023-08-07T07:00:38;12.00;;;3.45;;
11988;SDS011;6054;50.966;7.094;2023-08-07T07:03:06;7.43;;;3.05;;
11988;SDS011;6054;50.966;7.094;2023-08-07T07:05:34;12.00;;;2.90;;
11988;SDS011;6054;50.966;7.094;2023-08-07T07:08:01;8.25;;;2.85;;
11988;SDS011;6054;50.966;7.094;2023-08-07T07:10:28;10.80;;;3.38;;
11988;SDS011;6054;50.966;7.094;2023-08-07T07:12:55;10.98;;;3.20;;
11988;SDS011;6054;50.966;7.094;2023-08-07T07:15:21;14.13;;;3.33;;
11988;SDS011;6054;50.966;7.094;2023-08-07T07:17:48;9.27;;;3.53;;
11988;SDS011;6054;50.966;7.094;2023-08-07T07:20:16;7.82;;;3.10;;
11988;SDS011;6054;50.966;7.094;2023-08-07T07:22:43;14.15;;;3.30;;
11988;SDS011;6054;50.966;7.094;2023-08-07T07:25:10;7.85;;;2.88;;
11988;SDS011;6054;50.966;7.094;2023-08-07T07:27:37;11.38;;;3.13;;
11988;SDS011;6054;50.966;7.094;2023-08-07T07:30:05;10.52;;;2.80;;
11988;SDS011;6054;50.966;7.094;2023-08-07T07:32:33;9.38;;;3.03;;
11988;SDS011;6054;50.966;7.094;2023-08-07T07:35:00;11.10;;;3.08;;
11988;SDS011;6054;50.966;7.094;2023-08-07T07:37:28;11.65;;;3.10;;
11988;SDS011;6054;50.966;7.094;2023-08-07T07:39:56;11.23;;;3.38;;
11988;SDS011;6054;50.966;7.094;2023-08-07T07:42:23;4.07;;;2.40;;
11988;SDS011;6054;50.966;7.094;2023-08-07T07:44:49;7.88;;;3.10;;
11988;SDS011;6054;50.966;7.094;2023-08-07T07:47:17;14.10;;;3.63;;
11988;SDS011;6054;50.966;7.094;2023-08-07T07:49:44;8.90;;;3.63;;
11988;SDS011;6054;50.966;7.094;2023-08-07T07:52:12;10.77;;;2.97;;
11988;SDS011;6054;50.966;7.094;2023-08-07T07:54:40;13.20;;;3.22;;
11988;SDS011;6054;50.966;7.094;2023-08-07T07:57:07;13.98;;;3.08;;
11988;SDS011;6054;50.966;7.094;2023-08-07T07:59:34;13.15;;;3.42;;
11988;SDS011;6054;50.966;7.094;2023-08-07T08:02:02;11.70;;;2.90;;
11988;SDS011;6054;50.966;7.094;2023-08-07T08:04:28;14.18;;;3.58;;
11988;SDS011;6054;50.966;7.094;2023-08-07T08:06:55;10.38;;;3.13;;
11988;SDS011;6054;50.966;7.094;2023-08-07T08:09:22;9.20;;;3.45;;
11988;SDS011;6054;50.966;7.094;2023-08-07T08:11:50;18.45;;;3.20;;
11988;SDS011;6054;50.966;7.094;2023-08-07T08:14:17;11.98;;;3.00;;
11988;SDS011;6054;50.966;7.094;2023-08-07T08:16:43;14.57;;;3.30;;
11988;SDS011;6054;50.966;7.094;2023-08-07T08:19:10;11.32;;;3.55;;
11988;SDS011;6054;50.966;7.094;2023-08-07T08:21:37;9.80;;;3.05;;
11988;SDS011;6054;50.966;7.094;2023-08-07T08:24:04;8.80;;;2.92;;
11988;SDS011;6054;50.966;7.094;2023-08-07T08:26:31;12.27;;;3.45;;
11988;SDS011;6054;50.966;7.094;2023-08-07T08:28:59;11.65;;;3.78;;
11988;SDS011;6054;50.966;7.094;2023-08-07T08:31:26;13.75;;;3.35;;
11988;SDS011;6054;50.966;7.094;2023-08-07T08:33:53;12.90;;;3.70;;
11988;SDS011;6054;50.966;7.094;2023-08-07T08:36:19;12.80;;;3.25;;
11988;SDS011;6054;50.966;7.094;2023-08-07T08:38:47;8.43;;;3.15;;
11988;SDS011;6054;50.966;7.094;2023-08-07T08:41:13;13.55;;;3.58;;
11988;SDS011;6054;50.966;7.094;2023-08-07T08:43:42;10.57;;;3.28;;
11988;SDS011;6054;50.966;7.094;2023-08-07T08:46:13;12.25;;;3.50;;
11988;SDS011;6054;50.966;7.094;2023-08-07T08:48:41;15.40;;;3.75;;
11988;SDS011;6054;50.966;7.094;2023-08-07T08:51:13;9.52;;;3.17;;
11988;SDS011;6054;50.966;7.094;2023-08-07T08:53:40;16.58;;;3.92;;
11988;SDS011;6054;50.966;7.094;2023-08-07T08:56:07;11.75;;;3.35;;
11988;SDS011;6054;50.966;7.094;2023-08-07T08:58:34;16.23;;;4.22;;
11988;SDS011;6054;50.966;7.094;2023-08-07T09:01:01;8.73;;;3.10;;
11988;SDS011;6054;50.966;7.094;2023-08-07T09:03:29;10.68;;;3.05;;
11988;SDS011;6054;50.966;7.094;2023-08-07T09:05:57;10.48;;;3.00;;
11988;SDS011;6054;50.966;7.094;2023-08-07T09:08:25;17.17;;;3.22;;
11988;SDS011;6054;50.966;7.094;2023-08-07T09:10:57;15.05;;;3.40;;
11988;SDS011;6054;50.966;7.094;2023-08-07T09:13:26;11.95;;;3.17;;
11988;SDS011;6054;50.966;7.094;2023-08-07T09:15:55;13.88;;;3.50;;
11988;SDS011;6054;50.966;7.094;2023-08-07T09:18:27;12.65;;;3.95;;
11988;SDS011;6054;50.966;7.094;2023-08-07T09:20:55;9.38;;;2.83;;
11988;SDS011;6054;50.966;7.094;2023-08-07T09:23:23;17.40;;;3.30;;
11988;SDS011;6054;50.966;7.094;2023-08-07T09:25:58;11.57;;;3.38;;
11988;SDS011;6054;50.966;7.094;2023-08-07T09:28:25;13.30;;;3.45;;
11988;SDS011;6054;50.966;7.094;2023-08-07T09:30:52;16.17;;;3.13;;
11988;SDS011;6054;50.966;7.094;2023-08-07T09:33:24;11.65;;;3.22;;
11988;SDS011;6054;50.966;7.094;2023-08-07T09:41:52;14.05;;;3.92;;
11988;SDS011;6054;50.966;7.094;2023-08-07T09:44:19;12.50;;;3.92;;
11988;SDS011;6054;50.966;7.094;2023-08-07T09:46:47;12.32;;;4.05;;
11988;SDS011;6054;50.966;7.094;2023-08-07T09:49:14;12.40;;;4.05;;
11988;SDS011;6054;50.966;7.094;2023-08-07T09:51:41;9.07;;;3.50;;
11988;SDS011;6054;50.966;7.094;2023-08-07T09:54:09;8.98;;;2.78;;
11988;SDS011;6054;50.966;7.094;2023-08-07T09:56:37;8.10;;;4.15;;
11988;SDS011;6054;50.966;7.094;2023-08-07T09:59:04;15.75;;;3.70;;
11988;SDS011;6054;50.966;7.094;2023-08-07T10:01:37;13.65;;;3.45;;
11988;SDS011;6054;50.966;7.094;2023-08-07T10:04:36;11.55;;;2.80;;
11988;SDS011;6054;50.966;7.094;2023-08-07T10:07:03;10.40;;;3.00;;
11988;SDS011;6054;50.966;7.094;2023-08-07T10:11:59;7.47;;;3.20;;
11988;SDS011;6054;50.966;7.094;2023-08-07T10:14:27;6.40;;;2.53;;
11988;SDS011;6054;50.966;7.094;2023-08-07T10:16:54;5.10;;;2.38;;
11988;SDS011;6054;50.966;7.094;2023-08-07T10:19:21;6.20;;;2.10;;
11988;SDS011;6054;50.966;7.094;2023-08-07T10:21:48;4.95;;;1.95;;
11988;SDS011;6054;50.966;7.094;2023-08-07T10:24:16;8.40;;;2.25;;
11988;SDS011;6054;50.966;7.094;2023-08-07T10:26:44;8.15;;;2.03;;
11988;SDS011;6054;50.966;7.094;2023-08-07T10:29:14;5.70;;;2.22;;
11988;SDS011;6054;50.966;7.094;2023-08-07T10:31:45;7.07;;;2.38;;
11988;SDS011;6054;50.966;7.094;2023-08-07T10:34:13;11.63;;;2.58;;
11988;SDS011;6054;50.966;7.094;2023-08-07T10:36:40;10.57;;;2.10;;
11988;SDS011;6054;50.966;7.094;2023-08-07T10:39:07;8.52;;;1.95;;
11988;SDS011;6054;50.966;7.094;2023-08-07T10:41:38;6.55;;;2.25;;
11988;SDS011;6054;50.966;7.094;2023-08-07T10:44:11;3.92;;;1.83;;
11988;SDS011;6054;50.966;7.094;2023-08-07T10:46:48;6.10;;;2.17;;
11988;SDS011;6054;50.966;7.094;2023-08-07T10:49:35;7.32;;;2.10;;
11988;SDS011;6054;50.966;7.094;2023-08-07T10:52:03;5.57;;;2.17;;
11988;SDS011;6054;50.966;7.094;2023-08-07T10:54:38;6.45;;;2.05;;
11988;SDS011;6054;50.966;7.094;2023-08-07T10:57:09;7.13;;;2.25;;
11988;SDS011;6054;50.966;7.094;2023-08-07T10:59:39;8.23;;;2.10;;
11988;SDS011;6054;50.966;7.094;2023-08-07T11:02:11;7.93;;;2.28;;
11988;SDS011;6054;50.966;7.094;2023-08-07T11:04:39;5.50;;;1.88;;
11988;SDS011;6054;50.966;7.094;2023-08-07T11:07:06;5.40;;;1.52;;
11988;SDS011;6054;50.966;7.094;2023-08-07T11:09:34;7.32;;;1.77;;
11988;SDS011;6054;50.966;7.094;2023-08-07T11:12:01;4.00;;;1.95;;
11988;SDS011;6054;50.966;7.094;2023-08-07T11:14:28;5.05;;;1.70;;
11988;SDS011;6054;50.966;7.094;2023-08-07T11:16:56;3.40;;;1.88;;
11988;SDS011;6054;50.966;7.094;2023-08-07T11:19:22;6.78;;;2.28;;
11988;SDS011;6054;50.966;7.094;2023-08-07T11:21:50;6.43;;;1.75;;
11988;SDS011;6054;50.966;7.094;2023-08-07T11:24:17;2.67;;;1.70;;
11988;SDS011;6054;50.966;7.094;2023-08-07T11:26:46;3.45;;;1.80;;
11988;SDS011;6054;50.966;7.094;2023-08-07T11:29:15;4.22;;;1.40;;
11988;SDS011;6054;50.966;7.094;2023-08-07T11:31:42;3.05;;;1.45;;
11988;SDS011;6054;50.966;7.094;2023-08-07T11:34:11;6.07;;;1.60;;
11988;SDS011;6054;50.966;7.094;2023-08-07T11:36:40;3.90;;;1.55;;
11988;SDS011;6054;50.966;7.094;2023-08-07T11:39:07;3.63;;;1.40;;
11988;SDS011;6054;50.966;7.094;2023-08-07T11:41:34;5.50;;;1.50;;
11988;SDS011;6054;50.966;7.094;2023-08-07T11:44:01;6.53;;;1.83;;
11988;SDS011;6054;50.966;7.094;2023-08-07T11:46:28;3.97;;;2.05;;
11988;SDS011;6054;50.966;7.094;2023-08-07T11:48:55;4.68;;;1.85;;
11988;SDS011;6054;50.966;7.094;2023-08-07T11:51:23;4.28;;;1.25;;
11988;SDS011;6054;50.966;7.094;2023-08-07T11:53:50;3.95;;;1.67;;
11988;SDS011;6054;50.966;7.094;2023-08-07T11:56:21;4.47;;;1.80;;
11988;SDS011;6054;50.966;7.094;2023-08-07T11:58:48;3.83;;;1.65;;
11988;SDS011;6054;50.966;7.094;2023-08-07T12:01:17;6.68;;;1.70;;
11988;SDS011;6054;50.966;7.094;2023-08-07T12:03:49;4.90;;;1.67;;
11988;SDS011;6054;50.966;7.094;2023-08-07T12:06:17;6.53;;;1.45;;
11988;SDS011;6054;50.966;7.094;2023-08-07T12:08:48;6.10;;;2.13;;
11988;SDS011;6054;50.966;7.094;2023-08-07T12:11:15;3.25;;;1.70;;
11988;SDS011;6054;50.966;7.094;2023-08-07T12:13:44;2.90;;;1.60;;
11988;SDS011;6054;50.966;7.094;2023-08-07T12:16:11;2.70;;;1.50;;
11988;SDS011;6054;50.966;7.094;2023-08-07T12:18:42;7.32;;;1.83;;
11988;SDS011;6054;50.966;7.094;2023-08-07T12:21:10;3.03;;;1.80;;
11988;SDS011;6054;50.966;7.094;2023-08-07T12:23:37;2.42;;;1.83;;
11988;SDS011;6054;50.966;7.094;2023-08-07T12:26:05;7.78;;;1.60;;
11988;SDS011;6054;50.966;7.094;2023-08-07T12:28:32;6.93;;;2.53;;
11988;SDS011;6054;50.966;7.094;2023-08-07T12:30:59;5.22;;;1.88;;
11988;SDS011;6054;50.966;7.094;2023-08-07T12:33:25;3.95;;;1.90;;
11988;SDS011;6054;50.966;7.094;2023-08-07T12:35:52;2.53;;;1.52;;
11988;SDS011;6054;50.966;7.094;2023-08-07T12:38:19;5.85;;;1.75;;
11988;SDS011;6054;50.966;7.094;2023-08-07T12:40:46;3.13;;;1.60;;
11988;SDS011;6054;50.966;7.094;2023-08-07T12:43:14;4.20;;;1.50;;
11988;SDS011;6054;50.966;7.094;2023-08-07T12:45:41;2.60;;;1.40;;
11988;SDS011;6054;50.966;7.094;2023-08-07T12:48:08;3.80;;;1.30;;
11988;SDS011;6054;50.966;7.094;2023-08-07T12:50:35;1.67;;;1.35;;
11988;SDS011;6054;50.966;7.094;2023-08-07T12:53:01;3.08;;;1.23;;
11988;SDS011;6054;50.966;7.094;2023-08-07T12:55:28;4.28;;;1.60;;
11988;SDS011;6054;50.966;7.094;2023-08-07T12:57:55;3.63;;;1.55;;
11988;SDS011;6054;50.966;7.094;2023-08-07T13:00:24;1.95;;;1.30;;
11988;SDS011;6054;50.966;7.094;2023-08-07T13:02:51;4.85;;;1.50;;
11988;SDS011;6054;50.966;7.094;2023-08-07T13:05:20;2.97;;;1.55;;
11988;SDS011;6054;50.966;7.094;2023-08-07T13:07:48;2.00;;;1.40;;
11988;SDS011;6054;50.966;7.094;2023-08-07T13:10:18;2.72;;;1.35;;
11988;SDS011;6054;50.966;7.094;2023-08-07T13:12:47;7.00;;;1.75;;
11988;SDS011;6054;50.966;7.094;2023-08-07T13:15:14;2.72;;;1.60;;
11988;SDS011;6054;50.966;7.094;2023-08-07T13:17:44;2.30;;;1.30;;
11988;SDS011;6054;50.966;7.094;2023-08-07T13:20:11;3.22;;;1.40;;
11988;SDS011;6054;50.966;7.094;2023-08-07T13:22:39;4.22;;;1.55;;
11988;SDS011;6054;50.966;7.094;2023-08-07T13:25:07;3.45;;;1.45;;
11988;SDS011;6054;50.966;7.094;2023-08-07T13:27:35;2.25;;;1.40;;
11988;SDS011;6054;50.966;7.094;2023-08-07T13:30:02;2.58;;;1.50;;
11988;SDS011;6054;50.966;7.094;2023-08-07T13:32:30;4.18;;;1.67;;
11988;SDS011;6054;50.966;7.094;2023-08-07T13:34:59;3.50;;;1.63;;
11988;SDS011;6054;50.966;7.094;2023-08-07T13:37:26;3.15;;;1.30;;
11988;SDS011;6054;50.966;7.094;2023-08-07T13:39:53;2.50;;;1.60;;
11988;SDS011;6054;50.966;7.094;2023-08-07T13:42:23;3.72;;;1.85;;
11988;SDS011;6054;50.966;7.094;2023-08-07T13:44:50;1.77;;;1.23;;
11988;SDS011;6054;50.966;7.094;2023-08-07T13:47:17;3.58;;;2.05;;
11988;SDS011;6054;50.966;7.094;2023-08-07T13:49:45;3.45;;;1.40;;
11988;SDS011;6054;50.966;7.094;2023-08-07T13:52:13;2.00;;;1.50;;
11988;SDS011;6054;50.966;7.094;2023-08-07T13:54:40;2.35;;;1.52;;
11988;SDS011;6054;50.966;7.094;2023-08-07T13:57:07;2.72;;;1.25;;
11988;SDS011;6054;50.966;7.094;2023-08-07T13:59:33;3.28;;;1.40;;
11988;SDS011;6054;50.966;7.094;2023-08-07T14:02:00;3.58;;;1.95;;
11988;SDS011;6054;50.966;7.094;2023-08-07T14:04:27;2.08;;;1.40;;
11988;SDS011;6054;50.966;7.094;2023-08-07T14:06:54;2.47;;;1.60;;
11988;SDS011;6054;50.966;7.094;2023-08-07T14:09:22;3.92;;;1.42;;
11988;SDS011;6054;50.966;7.094;2023-08-07T14:11:49;3.85;;;1.65;;
11988;SDS011;6054;50.966;7.094;2023-08-07T14:14:16;4.97;;;1.90;;
11988;SDS011;6054;50.966;7.094;2023-08-07T14:16:42;3.58;;;1.63;;
11988;SDS011;6054;50.966;7.094;2023-08-07T14:19:09;4.47;;;1.73;;
11988;SDS011;6054;50.966;7.094;2023-08-07T14:21:36;2.30;;;1.55;;
11988;SDS011;6054;50.966;7.094;2023-08-07T14:24:03;3.20;;;1.65;;
11988;SDS011;6054;50.966;7.094;2023-08-07T14:26:32;6.78;;;1.92;;
11988;SDS011;6054;50.966;7.094;2023-08-07T14:28:59;4.30;;;1.67;;
11988;SDS011;6054;50.966;7.094;2023-08-07T14:31:26;3.67;;;1.70;;
11988;SDS011;6054;50.966;7.094;2023-08-07T14:33:52;3.92;;;1.25;;
11988;SDS011;6054;50.966;7.094;2023-08-07T14:36:19;2.05;;;1.33;;
11988;SDS011;6054;50.966;7.094;2023-08-07T14:38:46;2.78;;;1.90;;
11988;SDS011;6054;50.966;7.094;2023-08-07T14:41:13;3.50;;;1.70;;
11988;SDS011;6054;50.966;7.094;2023-08-07T14:43:41;7.97;;;2.10;;
11988;SDS011;6054;50.966;7.094;2023-08-07T14:46:07;4.53;;;2.03;;
11988;SDS011;6054;50.966;7.094;2023-08-07T14:48:34;3.55;;;1.80;;
11988;SDS011;6054;50.966;7.094;2023-08-07T14:51:01;5.15;;;1.98;;
11988;SDS011;6054;50.966;7.094;2023-08-07T14:53:28;4.15;;;1.58;;
11988;SDS011;6054;50.966;7.094;2023-08-07T14:55:55;4.10;;;2.00;;
11988;SDS011;6054;50.966;7.094;2023-08-07T14:58:21;5.15;;;2.30;;
11988;SDS011;6054;50.966;7.094;2023-08-07T15:00:51;5.65;;;1.90;;
11988;SDS011;6054;50.966;7.094;2023-08-07T15:03:20;2.83;;;1.67;;
11988;SDS011;6054;50.966;7.094;2023-08-07T15:05:46;4.55;;;2.17;;